Time;durP1;ratioP1;P1;durP2;ratioP2;P2;SDS_P1;SDS_P2;PMS_P1;PMS_P2;Temp;Humidity;BMP_temperature;BMP_pressure;BME280_temperature;BME280_humidity;BME280_pressure;Samples;Min_cycle;Max_cycle;Signal;HPM_P1;HPM_P2
2021/06/06 00:02:05;;;;;;;16.35;14.77;;;;;;;17.52;75.83;101118.53;3594100;40;20058;-52
2021/06/06 00:04:32;;;;;;;16.20;14.68;;;;;;;17.40;76.51;101122.78;3594513;40;20048;-54
2021/06/06 00:07:08;;;;;;;16.00;14.50;;;;;;;17.43;76.43;101122.81;3593581;40;20044;-52
2021/06/06 00:09:35;;;;;;;15.65;14.05;;;;;;;17.34;77.39;101118.44;3593862;39;20089;-54
2021/06/06 00:12:03;;;;;;;18.45;15.15;;;;;;;17.23;77.85;101115.78;3593958;40;20111;-49
2021/06/06 00:14:34;;;;;;;16.52;15.02;;;;;;;17.14;78.34;101127.81;3594207;40;20498;-50
2021/06/06 00:17:05;;;;;;;20.63;16.80;;;;;;;17.11;78.70;101125.22;3594273;40;20080;-52
2021/06/06 00:19:33;;;;;;;19.55;17.52;;;;;;;17.05;79.07;101120.84;3594014;40;20044;-52
2021/06/06 00:22:01;;;;;;;18.88;17.02;;;;;;;17.05;78.84;101121.75;3593647;40;20055;-50
2021/06/06 00:24:31;;;;;;;18.27;16.38;;;;;;;17.17;77.84;101120.06;3593782;40;20104;-52
2021/06/06 00:26:58;;;;;;;21.27;17.23;;;;;;;17.08;78.45;101127.78;3593619;40;20078;-53
2021/06/06 00:29:26;;;;;;;18.60;16.75;;;;;;;17.14;77.72;101125.22;3593770;40;20084;-51
2021/06/06 00:31:54;;;;;;;19.63;17.42;;;;;;;16.96;78.48;101116.50;3594226;40;20047;-49
2021/06/06 00:34:21;;;;;;;19.17;17.35;;;;;;;16.90;78.91;101125.94;3594099;40;20364;-54
2021/06/06 00:36:48;;;;;;;18.02;16.13;;;;;;;16.90;78.79;101123.34;3593929;40;20321;-49
2021/06/06 00:39:16;;;;;;;17.38;15.68;;;;;;;16.78;79.31;101121.56;3594087;40;20538;-51
2021/06/06 00:41:49;;;;;;;17.63;16.05;;;;;;;16.71;79.65;101125.78;3593831;40;20108;-50
2021/06/06 00:44:17;;;;;;;16.23;14.63;;;;;;;16.70;79.78;101118.88;3590883;40;20436;-49
2021/06/06 00:46:44;;;;;;;16.48;15.02;;;;;;;16.66;79.94;101122.28;3593695;40;20182;-51
2021/06/06 00:49:11;;;;;;;16.90;15.40;;;;;;;16.58;80.25;101121.34;3593913;40;20111;-49
2021/06/06 00:51:48;;;;;;;17.60;15.93;;;;;;;16.62;80.02;101125.69;3593802;40;20060;-52
2021/06/06 00:54:24;;;;;;;17.10;15.57;;;;;;;16.51;80.45;101124.75;3590467;40;20083;-52
2021/06/06 00:56:58;;;;;;;16.10;14.43;;;;;;;16.48;80.35;101122.13;3593516;40;20087;-51
2021/06/06 00:59:27;;;;;;;16.85;15.20;;;;;;;16.41;80.75;101121.22;3593835;40;20048;-51
2021/06/06 01:01:55;;;;;;;19.63;14.82;;;;;;;16.33;81.64;101122.88;3593703;40;20056;-50
2021/06/06 01:04:23;;;;;;;17.58;15.18;;;;;;;16.30;81.69;101123.69;3593569;40;20140;-48
2021/06/06 01:06:53;;;;;;;17.45;15.73;;;;;;;16.33;81.85;101125.47;3593649;40;20044;-53
2021/06/06 01:09:23;;;;;;;16.70;15.13;;;;;;;16.36;81.15;101133.25;3593338;40;20083;-50
2021/06/06 01:12:11;;;;;;;16.92;15.43;;;;;;;16.22;81.26;101129.66;3593487;40;20054;-50
2021/06/06 01:14:48;;;;;;;17.48;15.75;;;;;;;16.13;81.86;101125.28;3593516;40;20044;-55
2021/06/06 01:17:26;;;;;;;17.92;16.23;;;;;;;16.13;81.94;101126.97;3590928;40;20345;-54
2021/06/06 01:20:01;;;;;;;19.25;17.35;;;;;;;16.04;82.35;101125.19;3593607;40;20084;-50
2021/06/06 01:22:51;;;;;;;18.85;17.05;;;;;;;15.98;82.58;101127.69;3592993;39;20088;-51
2021/06/06 01:25:23;;;;;;;23.67;18.08;;;;;;;15.94;82.66;101126.78;3590982;40;20105;-48
2021/06/06 01:28:00;;;;;;;19.23;17.27;;;;;;;15.89;82.36;101125.88;3593599;40;20088;-48
2021/06/06 01:30:34;;;;;;;17.85;16.08;;;;;;;15.87;83.25;101129.31;3593407;40;20425;-50
2021/06/06 01:33:16;;;;;;;18.88;16.88;;;;;;;15.83;83.75;101124.94;3593142;40;20332;-54
2021/06/06 01:35:48;;;;;;;18.33;16.50;;;;;;;15.79;83.69;101126.63;3593226;40;20099;-54
2021/06/06 01:38:23;;;;;;;18.13;16.45;;;;;;;15.76;83.67;101127.47;3590418;40;20170;-52
2021/06/06 01:40:55;;;;;;;17.95;16.25;;;;;;;15.79;82.73;101135.25;3593480;40;20087;-53
2021/06/06 01:43:29;;;;;;;17.92;16.17;;;;;;;15.81;83.35;101124.06;3593644;40;20074;-52
2021/06/06 01:46:10;;;;;;;18.77;16.83;;;;;;;15.77;83.42;101125.75;3593358;40;20048;-52
2021/06/06 01:48:39;;;;;;;17.83;16.02;;;;;;;15.68;82.50;101126.50;3593441;40;20048;-50
2021/06/06 01:51:09;;;;;;;17.85;16.23;;;;;;;15.66;82.92;101127.31;3592386;40;20084;-50
2021/06/06 01:53:40;;;;;;;17.83;16.13;;;;;;;15.66;82.64;101128.19;3593246;40;20131;-50
2021/06/06 01:56:08;;;;;;;18.13;16.38;;;;;;;15.59;82.53;101128.94;3592537;40;20052;-50
2021/06/06 01:58:36;;;;;;;17.95;16.17;;;;;;;15.75;82.06;101125.72;3593344;40;20064;-48
2021/06/06 02:01:11;;;;;;;17.23;15.45;;;;;;;15.64;82.42;101136.78;3593266;40;20114;-48
2021/06/06 02:03:40;;;;;;;17.92;16.15;;;;;;;15.76;82.26;101130.06;3593436;40;20298;-54
2021/06/06 02:06:12;;;;;;;17.35;15.85;;;;;;;15.80;81.06;101125.78;3593246;40;20531;-52
2021/06/06 02:08:41;;;;;;;17.33;15.75;;;;;;;15.66;81.57;101129.91;3593582;40;20115;-54
2021/06/06 02:11:32;;;;;;;16.48;14.98;;;;;;;15.62;81.12;101128.09;3593758;40;20559;-47
2021/06/06 02:14:03;;;;;;;17.88;16.23;;;;;;;15.30;81.92;101133.75;3593622;40;20060;-48
2021/06/06 02:16:35;;;;;;;17.27;15.48;;;;;;;15.26;82.91;101126.81;3592959;40;20056;-50
2021/06/06 02:19:04;;;;;;;17.38;15.73;;;;;;;15.14;82.63;101129.22;3592744;40;20055;-52
2021/06/06 02:21:32;;;;;;;18.88;16.80;;;;;;;15.11;83.29;101127.44;3593307;40;20052;-54
2021/06/06 02:23:59;;;;;;;17.83;16.13;;;;;;;15.07;82.28;101125.69;3592762;40;20092;-50
2021/06/06 02:26:53;;;;;;;17.08;15.57;;;;;;;15.22;81.96;101132.78;3592699;40;20056;-51
2021/06/06 02:29:39;;;;;;;17.00;15.50;;;;;;;15.17;83.44;101135.28;3590529;40;20080;-50
2021/06/06 02:32:24;;;;;;;18.40;16.58;;;;;;;15.16;82.87;101132.66;3591987;40;20095;-53
2021/06/06 02:34:56;;;;;;;18.13;16.45;;;;;;;15.19;82.90;101133.59;3594340;40;20037;-50
2021/06/06 02:37:51;;;;;;;17.85;16.25;;;;;;;14.89;84.37;101133.16;3594723;40;20044;-52
2021/06/06 02:40:41;;;;;;;19.63;17.48;;;;;;;14.80;86.04;101130.44;3591578;40;20103;-50
2021/06/06 02:43:18;;;;;;;18.52;16.77;;;;;;;14.79;85.76;101132.16;3593465;40;20143;-51
2021/06/06 02:45:46;;;;;;;19.10;17.25;;;;;;;14.84;85.19;101132.22;3594352;40;20095;-52
2021/06/06 02:48:23;;;;;;;19.75;17.92;;;;;;;14.81;85.64;101135.59;3591389;40;20048;-53
2021/06/06 02:50:52;;;;;;;20.17;18.17;;;;;;;14.75;85.82;101138.97;3594397;40;20059;-50
2021/06/06 02:53:24;;;;;;;19.85;17.85;;;;;;;14.69;87.22;101136.28;3594356;40;20100;-51
2021/06/06 02:55:54;;;;;;;20.30;18.20;;;;;;;14.65;87.70;101137.09;3594422;40;20585;-51
2021/06/06 02:58:34;;;;;;;20.52;18.33;;;;;;;14.64;87.26;101135.31;3594625;40;20073;-51
2021/06/06 03:01:07;;;;;;;19.65;17.75;;;;;;;14.61;87.95;101131.88;3594151;40;20044;-50
2021/06/06 03:03:39;;;;;;;20.30;18.45;;;;;;;14.61;87.74;101129.28;3594197;40;20445;-52
2021/06/06 03:06:19;;;;;;;20.10;18.08;;;;;;;14.60;88.14;101130.09;3593898;40;20092;-49
2021/06/06 03:08:48;;;;;;;20.92;18.85;;;;;;;14.58;87.51;101127.50;3594452;40;20056;-49
2021/06/06 03:11:16;;;;;;;20.77;18.58;;;;;;;14.63;86.72;101125.00;3591465;40;20048;-52
2021/06/06 03:13:48;;;;;;;20.33;18.20;;;;;;;14.80;86.91;101123.56;3594087;40;20059;-48
2021/06/06 03:16:17;;;;;;;21.02;18.75;;;;;;;14.69;87.81;101127.66;3591235;40;20062;-50
2021/06/06 03:18:49;;;;;;;18.92;17.02;;;;;;;15.26;84.57;101129.38;3594239;40;20064;-49
2021/06/06 03:21:21;;;;;;;19.30;17.50;;;;;;;15.27;84.18;101128.53;3591421;40;20084;-51
2021/06/06 03:23:53;;;;;;;19.67;17.75;;;;;;;14.91;86.25;101134.03;3593988;40;20457;-48
2021/06/06 03:26:21;;;;;;;20.02;18.05;;;;;;;14.74;86.40;101128.59;3594119;40;20040;-53
2021/06/06 03:28:48;;;;;;;19.70;17.70;;;;;;;14.78;85.97;101127.81;3594147;40;20056;-52
2021/06/06 03:31:24;;;;;;;19.45;17.45;;;;;;;14.81;85.32;101132.16;3594104;40;20090;-51
2021/06/06 03:33:57;;;;;;;19.73;17.83;;;;;;;14.94;85.38;101128.94;3594088;40;20048;-51
2021/06/06 03:36:28;;;;;;;19.55;17.70;;;;;;;14.90;86.08;101135.75;3594331;40;20044;-49
2021/06/06 03:38:57;;;;;;;20.35;18.25;;;;;;;14.99;85.39;101133.31;3594268;40;20059;-51
2021/06/06 03:41:27;;;;;;;18.58;16.65;;;;;;;14.88;86.46;101140.03;3594228;40;20043;-50
2021/06/06 03:43:55;;;;;;;19.77;17.75;;;;;;;15.00;85.30;101142.78;3584713;40;20046;-50
2021/06/06 03:46:24;;;;;;;20.58;18.50;;;;;;;15.00;85.46;101139.31;3593795;39;20092;-51
2021/06/06 03:48:51;;;;;;;19.63;17.73;;;;;;;14.81;85.75;101150.22;3593933;40;20511;-50
2021/06/06 03:51:18;;;;;;;20.25;18.17;;;;;;;14.71;86.77;101144.06;3593570;40;20442;-54
2021/06/06 03:53:46;;;;;;;19.63;17.73;;;;;;;14.67;86.03;101145.69;3593951;40;20098;-54
2021/06/06 03:56:14;;;;;;;19.77;17.35;;;;;;;14.78;85.93;101151.03;3593888;40;20046;-49
2021/06/06 03:58:43;;;;;;;20.20;18.10;;;;;;;14.82;85.67;101149.38;3594012;40;20085;-51
2021/06/06 04:01:10;;;;;;;19.98;18.08;;;;;;;14.88;85.49;101146.88;3593771;40;20544;-50
2021/06/06 04:03:37;;;;;;;19.05;17.35;;;;;;;14.88;85.39;101140.03;3593949;40;20612;-54
2021/06/06 04:06:05;;;;;;;19.85;17.77;;;;;;;14.81;86.26;101148.50;3592937;40;20080;-48
2021/06/06 04:08:33;;;;;;;19.20;17.35;;;;;;;14.81;85.39;101147.63;3594129;40;20092;-50
2021/06/06 04:11:00;;;;;;;20.13;18.02;;;;;;;14.92;84.86;101146.06;3593843;40;20079;-49
2021/06/06 04:13:28;;;;;;;19.10;17.27;;;;;;;14.95;84.16;101147.00;3593893;40;20096;-51
2021/06/06 04:15:55;;;;;;;19.48;17.67;;;;;;;15.02;83.42;101148.84;3594361;40;20088;-48
2021/06/06 04:18:25;;;;;;;20.85;18.50;;;;;;;15.07;84.41;101159.22;3594116;40;20091;-50
2021/06/06 04:20:54;;;;;;;19.38;17.55;;;;;;;15.08;84.25;101155.78;3594134;40;20067;-54
2021/06/06 04:23:22;;;;;;;19.92;18.02;;;;;;;15.24;83.33;101151.69;3594306;40;20080;-50
2021/06/06 04:25:49;;;;;;;19.75;17.60;;;;;;;15.32;82.01;101154.41;3593924;40;20088;-52
2021/06/06 04:28:18;;;;;;;19.80;17.70;;;;;;;15.41;82.38;101152.81;3594396;40;20345;-50
2021/06/06 04:30:45;;;;;;;18.83;16.80;;;;;;;15.59;81.80;101153.91;3594022;40;20084;-50
2021/06/06 04:33:13;;;;;;;18.92;17.13;;;;;;;15.67;81.93;101153.19;3593885;40;20051;-48
2021/06/06 04:35:42;;;;;;;18.80;16.63;;;;;;;15.84;81.68;101152.50;3594114;40;20060;-49
2021/06/06 04:38:13;;;;;;;20.00;18.00;;;;;;;15.88;80.72;101164.59;3594312;40;20650;-50
2021/06/06 04:40:41;;;;;;;18.50;16.90;;;;;;;16.11;78.46;101155.38;3593753;40;20059;-52
2021/06/06 04:43:08;;;;;;;20.00;18.08;;;;;;;16.28;78.88;101153.84;3593765;40;20072;-52
2021/06/06 04:45:36;;;;;;;18.80;16.92;;;;;;;16.25;77.36;101152.94;3593723;40;20080;-53
2021/06/06 04:48:07;;;;;;;20.88;18.52;;;;;;;16.24;78.46;101157.25;3593697;40;20060;-51
2021/06/06 04:50:34;;;;;;;20.15;17.50;;;;;;;16.34;78.59;101154.75;3593816;40;20095;-51
2021/06/06 04:53:01;;;;;;;18.13;16.52;;;;;;;16.64;77.65;101161.91;3593535;40;20056;-51
2021/06/06 04:55:28;;;;;;;18.75;16.95;;;;;;;16.75;76.22;101162.91;3593487;40;20054;-50
2021/06/06 04:57:55;;;;;;;18.33;16.58;;;;;;;16.83;76.24;101155.22;3593794;39;20091;-52
2021/06/06 05:00:26;;;;;;;17.40;15.68;;;;;;;16.98;74.21;101151.00;3593786;40;20111;-51
2021/06/06 05:02:53;;;;;;;19.67;17.63;;;;;;;17.16;75.98;101162.34;3593740;40;20055;-51
2021/06/06 05:05:21;;;;;;;18.90;17.02;;;;;;;17.43;75.26;101162.50;3593729;40;20067;-52
2021/06/06 05:07:52;;;;;;;18.33;16.60;;;;;;;17.54;72.16;101155.63;3592034;22;20354;-41
2021/06/06 05:10:21;;;;;;;18.80;16.80;;;;;;;17.74;72.17;101165.25;3538628;40;20058;-40
2021/06/06 05:12:49;;;;;;;17.63;15.90;;;;;;;17.97;71.76;101168.78;3541851;40;20087;-40
2021/06/06 05:15:17;;;;;;;18.67;16.80;;;;;;;17.91;72.21;101166.16;3538606;40;20125;-40
2021/06/06 05:17:45;;;;;;;17.02;15.40;;;;;;;18.29;70.56;101157.63;3540583;40;20045;-40
2021/06/06 05:20:14;;;;;;;18.27;16.35;;;;;;;18.39;70.63;101161.94;3539047;40;20082;-40
2021/06/06 05:22:41;;;;;;;17.90;16.20;;;;;;;18.02;71.54;101167.06;3539215;40;20070;-42
2021/06/06 05:25:08;;;;;;;18.63;16.65;;;;;;;17.98;71.73;101165.34;3540478;40;20072;-42
2021/06/06 05:27:35;;;;;;;17.42;15.93;;;;;;;18.25;71.12;101158.47;3538536;40;20147;-43
2021/06/06 05:30:08;;;;;;;18.13;16.33;;;;;;;18.49;70.29;101162.84;3542030;40;20049;-43
2021/06/06 05:32:35;;;;;;;18.45;16.38;;;;;;;18.57;69.89;101163.69;3538485;40;20070;-42
2021/06/06 05:35:04;;;;;;;17.45;15.75;;;;;;;18.61;69.75;101164.56;3541987;40;20052;-46
2021/06/06 05:37:32;;;;;;;18.08;16.25;;;;;;;18.77;69.16;101166.34;3538465;40;20084;-41
2021/06/06 05:39:59;;;;;;;17.15;15.48;;;;;;;18.81;69.20;101165.44;3541462;40;20091;-42
2021/06/06 05:42:26;;;;;;;16.88;15.10;;;;;;;19.10;67.51;101168.03;3538760;40;20087;-43
2021/06/06 05:44:53;;;;;;;17.30;15.60;;;;;;;19.27;66.95;101170.56;3541838;40;20091;-42
2021/06/06 05:47:20;;;;;;;17.17;14.88;;;;;;;19.36;67.45;101170.53;3538546;40;20059;-44
2021/06/06 05:49:47;;;;;;;16.23;14.63;;;;;;;19.52;65.47;101167.03;3537999;40;21231;-41
2021/06/06 05:52:14;;;;;;;19.52;15.15;;;;;;;19.64;64.55;101167.88;3535411;40;20881;-41
2021/06/06 05:54:42;;;;;;;19.13;14.73;;;;;;;19.70;64.94;101173.94;3539496;40;20047;-40
2021/06/06 05:57:09;;;;;;;16.13;14.32;;;;;;;19.71;64.47;101172.19;3540141;40;20079;-41
2021/06/06 05:59:36;;;;;;;16.17;14.13;;;;;;;20.07;62.14;101169.41;3538350;40;20051;-41
2021/06/06 06:02:03;;;;;;;15.85;14.13;;;;;;;19.95;63.35;101164.28;3541731;40;20088;-41
2021/06/06 06:04:30;;;;;;;15.32;13.98;;;;;;;20.30;63.19;101171.88;3538269;40;20069;-45
2021/06/06 06:06:57;;;;;;;15.65;14.05;;;;;;;20.59;62.06;101181.25;3541572;40;20077;-45
2021/06/06 06:09:24;;;;;;;13.73;12.40;;;;;;;20.67;60.77;101176.00;3538067;40;20075;-42
2021/06/06 06:11:51;;;;;;;14.57;13.27;;;;;;;20.85;60.37;101171.50;3542039;40;20145;-40
2021/06/06 06:14:18;;;;;;;15.80;14.20;;;;;;;20.90;59.21;101171.44;3537921;40;20546;-41
2021/06/06 06:16:46;;;;;;;15.32;13.70;;;;;;;20.82;60.18;101175.84;3540669;40;20051;-42
2021/06/06 06:19:13;;;;;;;15.23;13.65;;;;;;;20.86;60.28;101174.94;3536675;40;20060;-41
2021/06/06 06:21:41;;;;;;;14.68;13.18;;;;;;;21.17;59.42;101182.44;3539768;40;20055;-41
2021/06/06 06:24:11;;;;;;;14.68;13.18;;;;;;;21.37;57.27;101182.28;3540233;40;20130;-42
2021/06/06 06:26:39;;;;;;;14.10;12.85;;;;;;;21.52;57.37;101184.72;3538675;40;20053;-45
2021/06/06 06:29:08;;;;;;;14.32;13.05;;;;;;;21.47;56.76;101181.31;3541520;40;20060;-41
2021/06/06 06:31:37;;;;;;;14.68;12.93;;;;;;;21.64;56.94;101181.97;3538635;40;20335;-41
2021/06/06 06:34:04;;;;;;;14.25;12.77;;;;;;;21.68;57.11;101186.28;3540990;40;20110;-42
2021/06/06 06:36:32;;;;;;;14.40;12.52;;;;;;;21.74;58.16;101195.75;3538748;40;20051;-42
2021/06/06 06:38:59;;;;;;;13.93;12.52;;;;;;;22.06;56.15;101187.50;3541459;40;20095;-42
2021/06/06 06:41:29;;;;;;;13.18;12.07;;;;;;;22.25;54.90;101189.00;3538896;40;20063;-42
2021/06/06 06:43:57;;;;;;;13.93;12.70;;;;;;;22.46;54.17;101187.81;3541913;40;20085;-42
2021/06/06 06:46:25;;;;;;;13.95;12.35;;;;;;;22.39;54.44;101187.94;3535008;40;20047;-42
2021/06/06 06:48:57;;;;;;;13.98;12.30;;;;;;;22.62;53.11;101188.44;3533905;40;20129;-41
2021/06/06 06:51:26;;;;;;;15.82;12.18;;;;;;;22.67;53.19;101185.75;3530321;40;20053;-42
2021/06/06 06:53:54;;;;;;;13.90;12.60;;;;;;;22.90;52.65;101194.09;3539467;40;20568;-42
2021/06/06 06:56:24;;;;;;;13.38;11.90;;;;;;;23.00;51.71;101198.25;3538094;40;20106;-42
2021/06/06 06:58:53;;;;;;;11.95;10.88;;;;;;;23.25;51.61;101188.25;3541690;40;20058;-41
2021/06/06 07:01:20;;;;;;;13.23;11.93;;;;;;;23.35;50.88;101194.16;3538639;40;20090;-42
2021/06/06 07:03:48;;;;;;;15.32;12.00;;;;;;;23.53;52.55;101193.81;3540521;40;20343;-43
2021/06/06 07:06:16;;;;;;;12.00;10.82;;;;;;;23.77;50.29;101189.84;3534827;40;20324;-43
2021/06/06 07:08:45;;;;;;;12.63;11.50;;;;;;;23.96;50.07;101198.16;3543379;40;20070;-42
2021/06/06 07:11:19;;;;;;;12.00;10.75;;;;;;;23.89;49.86;101196.56;3538971;40;20091;-43
2021/06/06 07:13:48;;;;;;;12.23;11.23;;;;;;;24.16;48.81;101199.47;3541969;40;20286;-42
2021/06/06 07:16:20;;;;;;;13.40;11.50;;;;;;;24.09;48.56;101197.00;3533723;40;20046;-43
2021/06/06 07:18:49;;;;;;;12.18;11.07;;;;;;;24.67;47.73;101204.41;3541172;40;20144;-45
2021/06/06 07:21:22;;;;;;;10.95;9.88;;;;;;;24.75;47.24;101203.34;3536247;40;20086;-45
2021/06/06 07:23:51;;;;;;;12.13;11.02;;;;;;;25.18;46.06;101199.63;3541693;40;20706;-47
2021/06/06 07:26:28;;;;;;;12.68;10.52;;;;;;;25.33;46.71;101203.63;3542418;40;20039;-46
2021/06/06 07:28:59;;;;;;;11.75;10.70;;;;;;;25.62;44.92;101203.66;3552643;40;20058;-44
2021/06/06 07:31:28;;;;;;;10.57;9.55;;;;;;;26.05;44.54;101205.03;3538924;40;20153;-47
2021/06/06 07:34:11;;;;;;;10.10;9.10;;;;;;;26.21;42.15;101199.31;3541119;40;20065;-44
2021/06/06 07:36:39;;;;;;;11.00;9.90;;;;;;;26.00;43.94;101196.44;3537454;40;20090;-49
2021/06/06 07:39:06;;;;;;;10.93;9.98;;;;;;;26.09;42.26;101197.94;3536902;40;20074;-47
2021/06/06 07:41:33;;;;;;;11.98;10.25;;;;;;;25.94;42.34;101198.41;3535816;40;20690;-46
2021/06/06 07:44:00;;;;;;;9.32;8.48;;;;;;;25.97;44.32;101198.28;3541559;40;20051;-44
2021/06/06 07:46:27;;;;;;;10.18;8.75;;;;;;;26.03;43.59;101193.75;3538629;40;20110;-44
2021/06/06 07:48:58;;;;;;;10.63;9.25;;;;;;;26.03;43.17;101196.38;3545493;40;20398;-43
2021/06/06 07:51:26;;;;;;;10.60;9.60;;;;;;;26.29;43.21;101194.69;3542542;40;20051;-43
2021/06/06 07:53:55;;;;;;;10.38;9.18;;;;;;;26.20;42.34;101193.19;3539252;40;20051;-46
2021/06/06 07:56:23;;;;;;;9.88;8.88;;;;;;;26.95;40.51;101193.41;3534916;40;20054;-49
2021/06/06 07:58:51;;;;;;;10.15;9.05;;;;;;;26.90;41.55;101185.69;3537885;40;20071;-45
2021/06/06 08:01:21;;;;;;;9.52;8.52;;;;;;;27.64;37.92;101191.84;3533364;40;20051;-55
2021/06/06 08:03:51;;;;;;;8.55;7.55;;;;;;;27.75;36.08;101196.72;3536561;40;20420;-46
2021/06/06 08:06:20;;;;;;;8.25;7.40;;;;;;;27.12;37.06;101191.06;3534685;40;20054;-47
2021/06/06 08:08:52;;;;;;;8.93;6.82;;;;;;;28.23;35.43;101197.50;3537756;40;20059;-45
2021/06/06 08:11:22;;;;;;;7.82;7.20;;;;;;;28.13;35.24;101194.38;3535017;40;20135;-48
2021/06/06 08:13:52;;;;;;;8.30;7.50;;;;;;;27.44;38.10;101194.31;3533064;40;20058;-45
2021/06/06 08:16:20;;;;;;;7.80;6.55;;;;;;;28.77;34.04;101193.56;3533744;40;20434;-45
2021/06/06 08:18:48;;;;;;;6.28;5.75;;;;;;;29.65;31.67;101194.13;3534134;40;20321;-45
2021/06/06 08:21:20;;;;;;;6.18;5.30;;;;;;;28.54;31.18;101197.16;3535343;40;20056;-45
2021/06/06 08:23:48;;;;;;;5.50;5.03;;;;;;;28.73;30.14;101195.47;3535706;40;20059;-45
2021/06/06 08:26:18;;;;;;;6.28;5.75;;;;;;;28.17;31.31;101198.59;3533778;40;20046;-44
2021/06/06 08:28:48;;;;;;;9.45;5.95;;;;;;;28.09;31.63;101196.25;3536724;40;20821;-46
2021/06/06 08:31:18;;;;;;;6.70;6.03;;;;;;;28.04;32.00;101192.94;3534451;40;20055;-44
2021/06/06 08:33:46;;;;;;;7.05;5.80;;;;;;;28.40;31.07;101198.56;3536525;40;20416;-44
2021/06/06 08:36:32;;;;;;;7.05;6.22;;;;;;;27.88;31.90;101194.47;3536352;40;20755;-45
2021/06/06 08:39:00;;;;;;;6.20;5.65;;;;;;;27.26;33.13;101182.69;3538912;40;20058;-49
2021/06/06 08:42:09;;;;;;;6.22;5.72;;;;;;;27.64;31.59;101186.56;3531572;40;20040;-47
2021/06/06 08:44:44;;;;;;;5.47;4.97;;;;;;;27.93;30.76;101187.25;3535151;40;20481;-44
2021/06/06 08:47:18;;;;;;;6.18;5.57;;;;;;;28.18;31.46;101185.38;3535474;40;20107;-48
2021/06/06 08:49:59;;;;;;;5.78;5.38;;;;;;;28.31;31.08;101185.75;3535762;40;20339;-47
2021/06/06 08:52:39;;;;;;;5.55;5.15;;;;;;;28.59;29.72;101188.13;3533736;40;20053;-44
2021/06/06 08:55:24;;;;;;;5.25;4.68;;;;;;;28.41;29.07;101186.25;3534652;40;20428;-45
2021/06/06 08:57:58;;;;;;;4.78;4.43;;;;;;;28.09;29.38;101191.00;3537356;40;20633;-47
2021/06/06 09:00:32;;;;;;;4.78;4.18;;;;;;;28.48;27.96;101190.38;3535049;40;20050;-47
2021/06/06 09:03:04;;;;;;;5.38;4.65;;;;;;;28.74;28.58;101196.31;3534773;40;20145;-49
2021/06/06 09:05:35;;;;;;;4.88;4.47;;;;;;;28.58;28.18;101189.06;3535550;40;20471;-45
2021/06/06 09:08:06;;;;;;;5.20;4.28;;;;;;;28.50;28.80;101192.94;3536182;40;20040;-47
2021/06/06 09:10:39;;;;;;;5.65;5.25;;;;;;;27.86;30.86;101193.66;3533227;40;20070;-46
2021/06/06 09:13:10;;;;;;;5.22;4.75;;;;;;;28.00;30.76;101196.63;3534599;40;20055;-46
2021/06/06 09:15:45;;;;;;;5.32;4.82;;;;;;;27.79;30.23;101192.19;3533211;40;20055;-50
2021/06/06 09:18:19;;;;;;;5.43;4.70;;;;;;;28.05;29.43;101202.56;3535986;40;20047;-49
2021/06/06 09:20:47;;;;;;;6.95;4.22;;;;;;;28.17;28.40;101198.59;3532441;40;20059;-45
2021/06/06 09:23:27;;;;;;;4.63;3.53;;;;;;;28.81;27.51;101196.00;3530069;40;20043;-47
2021/06/06 09:26:25;;;;;;;4.53;4.00;;;;;;;28.71;25.64;101196.47;3541189;40;20057;-49
2021/06/06 09:29:18;;;;;;;4.10;3.80;;;;;;;28.93;26.20;101191.97;3540903;40;20418;-44
2021/06/06 09:31:47;;;;;;;4.15;3.85;;;;;;;29.83;25.20;101193.28;3540114;40;20039;-46
2021/06/06 09:34:22;;;;;;;3.53;3.22;;;;;;;30.29;23.38;101191.13;3534733;40;20059;-45
2021/06/06 09:37:27;;;;;;;4.18;3.83;;;;;;;31.18;23.36;101191.94;3536538;40;21565;-45
2021/06/06 09:40:07;;;;;;;4.60;4.10;;;;;;;30.30;24.64;101194.59;3519271;40;20051;-44
2021/06/06 09:42:38;;;;;;;4.50;4.20;;;;;;;30.58;24.20;101186.16;3534838;40;20100;-45
2021/06/06 09:45:25;;;;;;;4.78;4.38;;;;;;;30.98;23.67;101187.69;3540431;40;20087;-46
2021/06/06 09:48:07;;;;;;;4.22;3.85;;;;;;;30.27;25.54;101192.97;3541625;40;20432;-45
2021/06/06 09:50:43;;;;;;;4.63;4.22;;;;;;;30.42;23.80;101192.22;3538454;40;20078;-45
2021/06/06 09:53:35;;;;;;;4.97;4.38;;;;;;;29.33;29.68;101192.91;3541221;40;20081;-45
2021/06/06 09:56:21;;;;;;;4.70;4.30;;;;;;;29.16;26.29;101186.59;3541294;40;20051;-44
2021/06/06 09:58:55;;;;;;;4.90;4.50;;;;;;;29.73;27.60;101192.00;3541720;40;20085;-44
2021/06/06 10:01:25;;;;;;;6.43;5.10;;;;;;;29.47;29.29;101185.22;3538194;40;20417;-44
2021/06/06 10:04:04;;;;;;;4.95;4.55;;;;;;;29.97;27.63;101186.50;3541736;40;20480;-47
2021/06/06 10:06:38;;;;;;;4.50;4.10;;;;;;;29.51;30.41;101180.69;3537971;40;20069;-45
2021/06/06 10:09:06;;;;;;;5.15;4.65;;;;;;;28.69;30.21;101191.25;3540955;40;20088;-44
2021/06/06 10:12:01;;;;;;;4.90;4.50;;;;;;;28.23;29.16;101186.97;3538504;40;20099;-48
2021/06/06 10:14:35;;;;;;;4.75;4.35;;;;;;;28.55;30.18;101183.91;3536407;40;20047;-44
2021/06/06 10:17:08;;;;;;;6.45;5.13;;;;;;;28.75;30.70;101195.38;3540684;40;20436;-44
2021/06/06 10:19:47;;;;;;;5.03;4.55;;;;;;;28.51;31.30;101187.59;3538027;40;20156;-45
2021/06/06 10:22:24;;;;;;;10.52;4.68;;;;;;;28.26;33.16;101190.34;3535131;40;20046;-45
2021/06/06 10:25:00;;;;;;;5.10;4.60;;;;;;;28.85;32.52;101188.84;3540389;40;20408;-45
2021/06/06 10:27:37;;;;;;;4.57;4.18;;;;;;;29.63;29.42;101196.84;3538207;40;20106;-45
2021/06/06 10:30:16;;;;;;;7.97;4.53;;;;;;;29.90;29.35;101191.19;3537054;40;20047;-45
2021/06/06 10:32:45;;;;;;;5.30;4.82;;;;;;;29.15;29.93;101184.03;3539538;40;20144;-45
2021/06/06 10:35:17;;;;;;;4.97;4.47;;;;;;;28.99;30.83;101186.50;3538426;40;20118;-45
2021/06/06 10:37:53;;;;;;;4.93;4.53;;;;;;;28.18;30.11;101185.38;3539697;40;20054;-45
2021/06/06 10:40:45;;;;;;;5.45;4.75;;;;;;;27.83;31.45;101185.91;3535589;40;20061;-46
2021/06/06 10:43:15;;;;;;;5.10;4.63;;;;;;;28.20;32.25;101184.47;3556931;40;20047;-46
2021/06/06 10:46:06;;;;;;;5.45;4.93;;;;;;;28.25;32.02;101190.41;3539247;40;20094;-46
2021/06/06 10:48:52;;;;;;;4.95;4.60;;;;;;;28.03;32.79;101188.63;3531499;40;20050;-46
2021/06/06 10:51:37;;;;;;;6.85;5.22;;;;;;;28.32;32.21;101187.44;3532567;40;20659;-47
2021/06/06 10:54:25;;;;;;;4.93;4.53;;;;;;;28.58;31.13;101186.41;3537841;40;20098;-44
2021/06/06 10:56:57;;;;;;;5.18;4.55;;;;;;;28.61;29.95;101188.94;3542866;40;20098;-51
2021/06/06 10:59:34;;;;;;;6.38;5.00;;;;;;;28.36;33.70;101189.06;3539619;40;20067;-45
2021/06/06 11:02:02;;;;;;;5.38;4.88;;;;;;;28.22;32.28;101185.25;3542661;40;20299;-46
2021/06/06 11:04:34;;;;;;;6.00;5.40;;;;;;;28.56;31.87;101188.25;3539378;40;20410;-45
2021/06/06 11:09:32;;;;;;;7.15;5.22;;;;;;;28.53;31.29;101185.75;3531325;40;20051;-55
2021/06/06 11:12:10;;;;;;;5.75;4.95;;;;;;;28.29;32.19;101184.97;3532149;40;20431;-50
2021/06/06 11:14:48;;;;;;;5.22;4.90;;;;;;;28.49;30.16;101181.53;3532494;40;20061;-49
2021/06/06 11:17:33;;;;;;;5.43;4.75;;;;;;;28.29;31.14;101182.31;3523250;40;20611;-48
2021/06/06 11:20:27;;;;;;;5.38;4.97;;;;;;;28.29;32.46;101184.09;3515127;40;20055;-52
2021/06/06 11:22:58;;;;;;;4.93;4.45;;;;;;;28.22;30.13;101186.09;3513925;40;20046;-52
2021/06/06 11:25:51;;;;;;;5.45;4.95;;;;;;;28.02;30.71;101181.63;3515097;40;20059;-53
2021/06/06 11:28:37;;;;;;;5.40;5.00;;;;;;;29.00;27.96;101177.66;3515029;40;20052;-54
2021/06/06 11:31:22;;;;;;;4.88;4.53;;;;;;;29.79;27.62;101180.28;3518048;40;20426;-51
2021/06/06 11:34:01;;;;;;;6.10;5.32;;;;;;;28.89;30.63;101175.44;3516597;40;20051;-54
2021/06/06 11:36:43;;;;;;;5.38;4.88;;;;;;;30.07;29.58;101177.19;3515102;40;20046;-55
2021/06/06 11:39:18;;;;;;;5.55;4.95;;;;;;;31.50;26.24;101178.81;3515076;40;20669;-51
2021/06/06 11:41:46;;;;;;;5.10;3.97;;;;;;;35.53;22.09;101191.78;3515118;40;20059;-52